Island Venture — WDG3765 — position and weather

sailwx.info

Track history (hours):
 
Tides and Currents Weather Stations Pressure Air Temp Water Temp Dewpoint Dewpoint Depression Visibility Wind Speed Wind Dir Waves Ship Positions

Island Venture

Owner: Island Tug & Barge Co, Seattle, WA. More information available from US FCC via Universal Licensing System and Coast Guard Vessel Documentation Center.

Last reported at 2014-Dec-20 04:33 UTC. Time now 2014-Dec-21 06:55 UTC.
Position N 47°34' W 122°21'.

Type: Tug. MMSI: 367529420.

Date/timePositionNaut miles runAvg speedWind from/ knotsBaromVisibWave heightAir tempDewpointWater temp
2014-Dec-20 04:33N 47°34' W 122°21'4 3.7
2014-Dec-20 03:33N 47°34' W 122°26'9 8.7
2014-Dec-20 02:33N 47°26' W 122°31'9 9.3
2014-Dec-20 01:33N 47°17' W 122°33'16 7.3
2014-Dec-19 23:26N 47°10' W 122°53'3 0.3
2014-Dec-19 12:26N 47°12' W 122°56'3 3.5
2014-Dec-19 11:31N 47°09' W 122°53'4 4.0
2014-Dec-19 10:31N 47°12' W 122°49'3 3.3
2014-Dec-19 09:32N 47°10' W 122°46'4 3.9
2014-Dec-19 08:26N 47°08' W 122°40'4 4.0
2014-Dec-19 07:29N 47°11' W 122°37'4 4.3
2014-Dec-19 06:27N 47°15' W 122°34'5 5.7
2014-Dec-19 05:33N 47°20' W 122°33'4 3.7
2014-Dec-19 04:33N 47°24' W 122°32'4 3.8
2014-Dec-19 03:33N 47°28' W 122°31'5 5.0
2014-Dec-19 02:33N 47°32' W 122°28'7 7.2
2014-Dec-19 01:33N 47°39' W 122°29'7 6.5
2014-Dec-19 00:33N 47°45' W 122°25'7 6.9
2014-Dec-18 23:33N 47°52' W 122°22'7 7.3
2014-Dec-18 22:33N 47°58' W 122°17'4 4.4
2014-Dec-18 21:33N 48°01' W 122°12'0 0.3
2014-Dec-18 20:33N 48°01' W 122°11'0 0.0
2014-Dec-18 19:33N 48°01' W 122°11'0 0.0
2014-Dec-18 18:33N 48°01' W 122°11'0 0.0
2014-Dec-18 17:33N 48°01' W 122°11'0 0.0
2014-Dec-18 15:30N 48°01' W 122°11'0 0.0
2014-Dec-18 14:33N 48°01' W 122°11'0 0.0
2014-Dec-18 13:33N 48°01' W 122°11'0 0.0
2014-Dec-18 12:33N 48°01' W 122°11'0 0.0
2014-Dec-18 11:29N 48°01' W 122°11'1 1.1
2014-Dec-18 10:33N 48°01' W 122°13'2 1.8
2014-Dec-18 09:33N 47°60' W 122°13'3 2.8
2014-Dec-18 08:33N 47°59' W 122°17'1 0.6
2014-Dec-18 07:24N 47°58' W 122°18'0 0.4
2014-Dec-18 06:33N 47°58' W 122°18'4 3.9
2014-Dec-18 05:33N 47°54' W 122°21'5 5.4
2014-Dec-18 04:33N 47°50' W 122°24'6 6.0
2014-Dec-18 03:33N 47°44' W 122°26'6 5.9
2014-Dec-18 02:33N 47°38' W 122°26'6 6.0
2014-Dec-18 01:33N 47°32' W 122°28'8 8.1
2014-Dec-18 00:34N 47°24' W 122°32'9 9.3
2014-Dec-17 23:33N 47°15' W 122°34'10 7.4
2014-Dec-17 22:11N 47°10' W 122°47'4 5.8
2014-Dec-17 21:29N 47°10' W 122°53'3 0.1
2014-Dec-16 18:33N 47°12' W 122°56'3 2.9
2014-Dec-16 17:33N 47°09' W 122°54'5 4.7
2014-Dec-16 16:31N 47°09' W 122°46'5 4.6
2014-Dec-16 15:30N 47°09' W 122°39'6 6.1
2014-Dec-16 14:33N 47°14' W 122°35'5 5.5
2014-Dec-16 13:33N 47°19' W 122°34'7 7.0
2014-Dec-16 12:33N 47°26' W 122°31'7 7.3
2014-Dec-16 11:33N 47°33' W 122°28'5 4.7
2014-Dec-16 10:33N 47°34' W 122°21'0 0.0
2014-Dec-16 09:33N 47°34' W 122°21'0 0.0
2014-Dec-16 08:33N 47°34' W 122°21'0 0.0
2014-Dec-16 07:29N 47°34' W 122°21'0 0.0
2014-Dec-16 06:32N 47°34' W 122°21'0 0.0
2014-Dec-16 05:33N 47°34' W 122°21'1 0.5
2014-Dec-16 04:22N 47°34' W 122°21'1 0.9
2014-Dec-16 03:25N 47°33' W 122°20'2 1.9
2014-Dec-16 02:33N 47°34' W 122°21'3 3.1
2014-Dec-16 01:33N 47°34' W 122°26'10 7.1
2014-Dec-16 00:07N 47°24' W 122°32'4 7.5
2014-Dec-15 23:33N 47°20' W 122°33'8 8.4
2014-Dec-15 22:32N 47°12' W 122°37'8 6.4
2014-Dec-15 21:18N 47°11' W 122°49'1 0.1
2014-Dec-15 04:33N 47°11' W 122°50'7 6.6
2014-Dec-15 03:31N 47°11' W 122°40'7 7.6
2014-Dec-15 02:33N 47°17' W 122°33'7 7.4
2014-Dec-15 01:33N 47°24' W 122°32'7 7.3
2014-Dec-15 00:33N 47°31' W 122°29'6 6.0
2014-Dec-14 23:33N 47°35' W 122°22'1 1.0
2014-Dec-14 22:33N 47°34' W 122°21'0 0.0
2014-Dec-14 21:33N 47°34' W 122°21'0 0.0
2014-Dec-14 20:33N 47°34' W 122°21'0 0.0
2014-Dec-12 17:30N 47°34' W 122°21'6 6.8
2014-Dec-12 16:33N 47°37' W 122°30'1 0.6
2014-Dec-12 15:33N 47°37' W 122°31'5 5.1
2014-Dec-12 14:33N 47°36' W 122°23'2 2.2
2014-Dec-12 13:33N 47°34' W 122°21'1 1.1
2014-Dec-12 12:33N 47°35' W 122°22'2 1.6
2014-Dec-12 11:27N 47°34' W 122°21'2 2.6
2014-Dec-12 10:33N 47°36' W 122°22'5 4.7
2014-Dec-12 09:33N 47°32' W 122°26'7 7.0
2014-Dec-12 08:33N 47°26' W 122°31'8 8.4
2014-Dec-12 07:33N 47°18' W 122°32'8 8.5
2014-Dec-12 06:33N 47°10' W 122°39'2 2.0
2014-Dec-12 05:32N 47°08' W 122°39'0 0.0
2014-Dec-12 04:09N 47°08' W 122°39'0 0.0
2014-Dec-12 03:21N 47°08' W 122°39'0 0.0
2014-Dec-12 02:23N 47°08' W 122°39'0 0.0
2014-Dec-12 01:33N 47°08' W 122°39'0 0.0
2014-Dec-12 00:33N 47°08' W 122°39'0 0.0
2014-Dec-11 23:33N 47°08' W 122°39'0 0.0
2014-Dec-11 22:23N 47°08' W 122°39'1 0.7
2014-Dec-11 21:33N 47°09' W 122°38'0 0.0
2014-Dec-11 20:33N 47°09' W 122°38'0 0.0
2014-Dec-11 19:33N 47°09' W 122°38'5 4.1
2014-Dec-11 18:24N 47°13' W 122°35'5 6.5
2014-Dec-11 17:33N 47°18' W 122°33'8 8.1
2014-Dec-11 16:33N 47°26' W 122°31'9 8.5
2014-Dec-11 15:33N 47°34' W 122°26'4 3.7
2014-Dec-11 14:33N 47°34' W 122°21'1 0.7
2014-Dec-11 13:33N 47°34' W 122°21'1 1.1
2014-Dec-11 12:33N 47°33' W 122°21'1 0.7
2014-Dec-11 11:33N 47°33' W 122°20'0 0.1
2014-Dec-11 10:33N 47°33' W 122°20'1 1.5
2014-Dec-11 09:33N 47°34' W 122°21'4 3.9
2014-Dec-11 08:33N 47°34' W 122°27'8 8.4
2014-Dec-11 07:33N 47°26' W 122°31'9 9.1
2014-Dec-11 06:33N 47°17' W 122°33'16 1.0
2014-Dec-10 15:26N 47°09' W 122°53'4 4.1
2014-Dec-10 14:22N 47°09' W 122°47'5 5.5
2014-Dec-10 13:30N 47°08' W 122°40'1 1.1
2014-Dec-10 12:33N 47°09' W 122°38'0 0.0
2014-Dec-10 11:33N 47°09' W 122°38'3 2.9
2014-Dec-10 10:31N 47°11' W 122°37'9 8.9
2014-Dec-10 09:33N 47°20' W 122°33'8 7.7
2014-Dec-10 08:33N 47°27' W 122°31'8 7.8
2014-Dec-10 07:33N 47°34' W 122°27'4 3.9
2014-Dec-10 06:33N 47°34' W 122°21'0 0.0
2014-Dec-10 05:33N 47°34' W 122°21'2 1.8
2014-Dec-10 04:33N 47°36' W 122°22'  
Track history (hours):
 
Tides and Currents Weather Stations Pressure Air Temp Water Temp Dewpoint Dewpoint Depression Visibility Wind Speed Wind Dir Waves Ship Positions

Island Venture

Owner: Island Tug & Barge Co, Seattle, WA. More information available from US FCC via Universal Licensing System and Coast Guard Vessel Documentation Center.

Last reported at 2014-Dec-20 04:33 UTC. Time now 2014-Dec-21 06:55 UTC.
Position N 47°34' W 122°21'.

Type: Tug. MMSI: 367529420.

Date/timePositionNaut miles runAvg speedWind from/ knotsBaromVisibWave heightAir tempDewpointWater temp
2014-Dec-20 04:33N 47°34' W 122°21'4 3.7
2014-Dec-20 03:33N 47°34' W 122°26'9 8.7
2014-Dec-20 02:33N 47°26' W 122°31'9 9.3
2014-Dec-20 01:33N 47°17' W 122°33'16 7.3
2014-Dec-19 23:26N 47°10' W 122°53'3 0.3
2014-Dec-19 12:26N 47°12' W 122°56'3 3.5
2014-Dec-19 11:31N 47°09' W 122°53'4 4.0
2014-Dec-19 10:31N 47°12' W 122°49'3 3.3
2014-Dec-19 09:32N 47°10' W 122°46'4 3.9
2014-Dec-19 08:26N 47°08' W 122°40'4 4.0
2014-Dec-19 07:29N 47°11' W 122°37'4 4.3
2014-Dec-19 06:27N 47°15' W 122°34'5 5.7
2014-Dec-19 05:33N 47°20' W 122°33'4 3.7
2014-Dec-19 04:33N 47°24' W 122°32'4 3.8
2014-Dec-19 03:33N 47°28' W 122°31'5 5.0
2014-Dec-19 02:33N 47°32' W 122°28'7 7.2
2014-Dec-19 01:33N 47°39' W 122°29'7 6.5
2014-Dec-19 00:33N 47°45' W 122°25'7 6.9
2014-Dec-18 23:33N 47°52' W 122°22'7 7.3
2014-Dec-18 22:33N 47°58' W 122°17'4 4.4
2014-Dec-18 21:33N 48°01' W 122°12'0 0.3
2014-Dec-18 20:33N 48°01' W 122°11'0 0.0
2014-Dec-18 19:33N 48°01' W 122°11'0 0.0
2014-Dec-18 18:33N 48°01' W 122°11'0 0.0
2014-Dec-18 17:33N 48°01' W 122°11'0 0.0
2014-Dec-18 15:30N 48°01' W 122°11'0 0.0
2014-Dec-18 14:33N 48°01' W 122°11'0 0.0
2014-Dec-18 13:33N 48°01' W 122°11'0 0.0
2014-Dec-18 12:33N 48°01' W 122°11'0 0.0
2014-Dec-18 11:29N 48°01' W 122°11'1 1.1
2014-Dec-18 10:33N 48°01' W 122°13'2 1.8
2014-Dec-18 09:33N 47°60' W 122°13'3 2.8
2014-Dec-18 08:33N 47°59' W 122°17'1 0.6
2014-Dec-18 07:24N 47°58' W 122°18'0 0.4
2014-Dec-18 06:33N 47°58' W 122°18'4 3.9
2014-Dec-18 05:33N 47°54' W 122°21'5 5.4
2014-Dec-18 04:33N 47°50' W 122°24'6 6.0
2014-Dec-18 03:33N 47°44' W 122°26'6 5.9
2014-Dec-18 02:33N 47°38' W 122°26'6 6.0
2014-Dec-18 01:33N 47°32' W 122°28'8 8.1
2014-Dec-18 00:34N 47°24' W 122°32'9 9.3
2014-Dec-17 23:33N 47°15' W 122°34'10 7.4
2014-Dec-17 22:11N 47°10' W 122°47'4 5.8
2014-Dec-17 21:29N 47°10' W 122°53'3 0.1
2014-Dec-16 18:33N 47°12' W 122°56'3 2.9
2014-Dec-16 17:33N 47°09' W 122°54'5 4.7
2014-Dec-16 16:31N 47°09' W 122°46'5 4.6
2014-Dec-16 15:30N 47°09' W 122°39'6 6.1
2014-Dec-16 14:33N 47°14' W 122°35'5 5.5
2014-Dec-16 13:33N 47°19' W 122°34'7 7.0
2014-Dec-16 12:33N 47°26' W 122°31'7 7.3
2014-Dec-16 11:33N 47°33' W 122°28'5 4.7
2014-Dec-16 10:33N 47°34' W 122°21'0 0.0
2014-Dec-16 09:33N 47°34' W 122°21'0 0.0
2014-Dec-16 08:33N 47°34' W 122°21'0 0.0
2014-Dec-16 07:29N 47°34' W 122°21'0 0.0
2014-Dec-16 06:32N 47°34' W 122°21'0 0.0
2014-Dec-16 05:33N 47°34' W 122°21'1 0.5
2014-Dec-16 04:22N 47°34' W 122°21'1 0.9
2014-Dec-16 03:25N 47°33' W 122°20'2 1.9
2014-Dec-16 02:33N 47°34' W 122°21'3 3.1
2014-Dec-16 01:33N 47°34' W 122°26'10 7.1
2014-Dec-16 00:07N 47°24' W 122°32'4 7.5
2014-Dec-15 23:33N 47°20' W 122°33'8 8.4
2014-Dec-15 22:32N 47°12' W 122°37'8 6.4
2014-Dec-15 21:18N 47°11' W 122°49'1 0.1
2014-Dec-15 04:33N 47°11' W 122°50'7 6.6
2014-Dec-15 03:31N 47°11' W 122°40'7 7.6
2014-Dec-15 02:33N 47°17' W 122°33'7 7.4
2014-Dec-15 01:33N 47°24' W 122°32'7 7.3
2014-Dec-15 00:33N 47°31' W 122°29'6 6.0
2014-Dec-14 23:33N 47°35' W 122°22'1 1.0
2014-Dec-14 22:33N 47°34' W 122°21'0 0.0
2014-Dec-14 21:33N 47°34' W 122°21'0 0.0
2014-Dec-14 20:33N 47°34' W 122°21'0 0.0
2014-Dec-12 17:30N 47°34' W 122°21'6 6.8
2014-Dec-12 16:33N 47°37' W 122°30'1 0.6
2014-Dec-12 15:33N 47°37' W 122°31'5 5.1
2014-Dec-12 14:33N 47°36' W 122°23'2 2.2
2014-Dec-12 13:33N 47°34' W 122°21'1 1.1
2014-Dec-12 12:33N 47°35' W 122°22'2 1.6
2014-Dec-12 11:27N 47°34' W 122°21'2 2.6
2014-Dec-12 10:33N 47°36' W 122°22'5 4.7
2014-Dec-12 09:33N 47°32' W 122°26'7 7.0
2014-Dec-12 08:33N 47°26' W 122°31'8 8.4
2014-Dec-12 07:33N 47°18' W 122°32'8 8.5
2014-Dec-12 06:33N 47°10' W 122°39'2 2.0
2014-Dec-12 05:32N 47°08' W 122°39'0 0.0
2014-Dec-12 04:09N 47°08' W 122°39'0 0.0
2014-Dec-12 03:21N 47°08' W 122°39'0 0.0
2014-Dec-12 02:23N 47°08' W 122°39'0 0.0
2014-Dec-12 01:33N 47°08' W 122°39'0 0.0
2014-Dec-12 00:33N 47°08' W 122°39'0 0.0
2014-Dec-11 23:33N 47°08' W 122°39'0 0.0
2014-Dec-11 22:23N 47°08' W 122°39'1 0.7
2014-Dec-11 21:33N 47°09' W 122°38'0 0.0
2014-Dec-11 20:33N 47°09' W 122°38'0 0.0
2014-Dec-11 19:33N 47°09' W 122°38'5 4.1
2014-Dec-11 18:24N 47°13' W 122°35'5 6.5
2014-Dec-11 17:33N 47°18' W 122°33'8 8.1
2014-Dec-11 16:33N 47°26' W 122°31'9 8.5
2014-Dec-11 15:33N 47°34' W 122°26'4 3.7
2014-Dec-11 14:33N 47°34' W 122°21'1 0.7
2014-Dec-11 13:33N 47°34' W 122°21'1 1.1
2014-Dec-11 12:33N 47°33' W 122°21'1 0.7
2014-Dec-11 11:33N 47°33' W 122°20'0 0.1
2014-Dec-11 10:33N 47°33' W 122°20'1 1.5
2014-Dec-11 09:33N 47°34' W 122°21'4 3.9
2014-Dec-11 08:33N 47°34' W 122°27'8 8.4
2014-Dec-11 07:33N 47°26' W 122°31'9 9.1
2014-Dec-11 06:33N 47°17' W 122°33'16 1.0
2014-Dec-10 15:26N 47°09' W 122°53'4 4.1
2014-Dec-10 14:22N 47°09' W 122°47'5 5.5
2014-Dec-10 13:30N 47°08' W 122°40'1 1.1
2014-Dec-10 12:33N 47°09' W 122°38'0 0.0
2014-Dec-10 11:33N 47°09' W 122°38'3 2.9
2014-Dec-10 10:31N 47°11' W 122°37'9 8.9
2014-Dec-10 09:33N 47°20' W 122°33'8 7.7
2014-Dec-10 08:33N 47°27' W 122°31'8 7.8
2014-Dec-10 07:33N 47°34' W 122°27'4 3.9
2014-Dec-10 06:33N 47°34' W 122°21'0 0.0
2014-Dec-10 05:33N 47°34' W 122°21'2 1.8
2014-Dec-10 04:33N 47°36' W 122°22'  

Dump ship's entire track history